sensor_id;sensor_type;location;lat;lon;timestamp;P1;durP1;ratioP1;P2;durP2;ratioP2
48853;SDS011;34673;52.808;17.856;2023-06-24T00:02:23;8.82;;;4.57;;
48853;SDS011;34673;52.808;17.856;2023-06-24T00:04:51;5.78;;;4.10;;
48853;SDS011;34673;52.808;17.856;2023-06-24T00:07:21;9.10;;;4.45;;
48853;SDS011;34673;52.808;17.856;2023-06-24T00:09:49;8.05;;;4.60;;
48853;SDS011;34673;52.808;17.856;2023-06-24T00:12:16;6.30;;;4.65;;
48853;SDS011;34673;52.808;17.856;2023-06-24T00:14:46;10.37;;;5.13;;
48853;SDS011;34673;52.808;17.856;2023-06-24T00:17:14;7.15;;;4.40;;
48853;SDS011;34673;52.808;17.856;2023-06-24T00:19:42;7.18;;;4.63;;
48853;SDS011;34673;52.808;17.856;2023-06-24T00:22:10;7.40;;;4.93;;
48853;SDS011;34673;52.808;17.856;2023-06-24T00:24:41;7.95;;;4.90;;
48853;SDS011;34673;52.808;17.856;2023-06-24T00:27:10;8.15;;;4.95;;
48853;SDS011;34673;52.808;17.856;2023-06-24T00:29:37;9.77;;;5.28;;
48853;SDS011;34673;52.808;17.856;2023-06-24T00:32:04;6.60;;;5.57;;
48853;SDS011;34673;52.808;17.856;2023-06-24T00:34:32;7.22;;;4.78;;
48853;SDS011;34673;52.808;17.856;2023-06-24T00:37:00;7.22;;;4.85;;
48853;SDS011;34673;52.808;17.856;2023-06-24T00:39:29;8.02;;;4.78;;
48853;SDS011;34673;52.808;17.856;2023-06-24T00:41:57;7.10;;;4.78;;
48853;SDS011;34673;52.808;17.856;2023-06-24T00:44:24;8.10;;;5.22;;
48853;SDS011;34673;52.808;17.856;2023-06-24T00:46:51;9.13;;;5.05;;
48853;SDS011;34673;52.808;17.856;2023-06-24T00:49:19;11.07;;;5.32;;
48853;SDS011;34673;52.808;17.856;2023-06-24T00:51:46;8.93;;;5.50;;
48853;SDS011;34673;52.808;17.856;2023-06-24T00:54:17;7.45;;;4.85;;
48853;SDS011;34673;52.808;17.856;2023-06-24T00:56:45;6.28;;;4.88;;
48853;SDS011;34673;52.808;17.856;2023-06-24T00:59:15;6.72;;;5.05;;
48853;SDS011;34673;52.808;17.856;2023-06-24T01:01:43;9.07;;;5.17;;
48853;SDS011;34673;52.808;17.856;2023-06-24T01:04:13;6.88;;;4.47;;
48853;SDS011;34673;52.808;17.856;2023-06-24T01:06:40;8.65;;;4.85;;
48853;SDS011;34673;52.808;17.856;2023-06-24T01:09:10;6.70;;;5.00;;
48853;SDS011;34673;52.808;17.856;2023-06-24T01:11:39;7.68;;;5.05;;
48853;SDS011;34673;52.808;17.856;2023-06-24T01:14:06;11.00;;;5.43;;
48853;SDS011;34673;52.808;17.856;2023-06-24T01:17:17;8.98;;;5.05;;
48853;SDS011;34673;52.808;17.856;2023-06-24T01:34:24;8.45;;;4.88;;
48853;SDS011;34673;52.808;17.856;2023-06-24T01:40:17;6.30;;;5.10;;
48853;SDS011;34673;52.808;17.856;2023-06-24T01:42:52;6.90;;;5.05;;
48853;SDS011;34673;52.808;17.856;2023-06-24T01:45:23;9.90;;;5.38;;
48853;SDS011;34673;52.808;17.856;2023-06-24T01:50:37;12.85;;;5.15;;
48853;SDS011;34673;52.808;17.856;2023-06-24T01:53:09;6.65;;;4.95;;
48853;SDS011;34673;52.808;17.856;2023-06-24T01:55:40;10.23;;;5.10;;
48853;SDS011;34673;52.808;17.856;2023-06-24T01:58:09;8.20;;;5.50;;
48853;SDS011;34673;52.808;17.856;2023-06-24T02:00:38;9.50;;;5.50;;
48853;SDS011;34673;52.808;17.856;2023-06-24T02:03:07;7.45;;;5.00;;
48853;SDS011;34673;52.808;17.856;2023-06-24T02:05:36;11.85;;;5.40;;
48853;SDS011;34673;52.808;17.856;2023-06-24T02:08:08;7.55;;;5.25;;
48853;SDS011;34673;52.808;17.856;2023-06-24T02:10:37;7.57;;;5.13;;
48853;SDS011;34673;52.808;17.856;2023-06-24T02:13:07;6.70;;;5.18;;
48853;SDS011;34673;52.808;17.856;2023-06-24T02:15:36;10.73;;;5.68;;
48853;SDS011;34673;52.808;17.856;2023-06-24T02:18:06;7.35;;;5.20;;
48853;SDS011;34673;52.808;17.856;2023-06-24T02:20:36;13.00;;;5.85;;
48853;SDS011;34673;52.808;17.856;2023-06-24T02:23:06;9.13;;;6.20;;
48853;SDS011;34673;52.808;17.856;2023-06-24T02:25:36;6.65;;;5.35;;
48853;SDS011;34673;52.808;17.856;2023-06-24T02:28:08;11.27;;;5.97;;
48853;SDS011;34673;52.808;17.856;2023-06-24T02:30:37;9.63;;;5.43;;
48853;SDS011;34673;52.808;17.856;2023-06-24T02:33:06;7.25;;;5.35;;
48853;SDS011;34673;52.808;17.856;2023-06-24T02:35:34;7.15;;;5.20;;
48853;SDS011;34673;52.808;17.856;2023-06-24T02:38:02;7.38;;;5.20;;
48853;SDS011;34673;52.808;17.856;2023-06-24T02:40:29;9.40;;;5.20;;
48853;SDS011;34673;52.808;17.856;2023-06-24T02:42:58;8.48;;;5.32;;
48853;SDS011;34673;52.808;17.856;2023-06-24T02:45:26;7.97;;;5.00;;
48853;SDS011;34673;52.808;17.856;2023-06-24T02:47:55;7.90;;;5.43;;
48853;SDS011;34673;52.808;17.856;2023-06-24T02:50:24;9.77;;;5.15;;
48853;SDS011;34673;52.808;17.856;2023-06-24T02:52:53;7.88;;;4.60;;
48853;SDS011;34673;52.808;17.856;2023-06-24T02:55:26;10.05;;;5.70;;
48853;SDS011;34673;52.808;17.856;2023-06-24T02:57:59;6.22;;;4.53;;
48853;SDS011;34673;52.808;17.856;2023-06-24T03:01:04;5.97;;;4.35;;
48853;SDS011;34673;52.808;17.856;2023-06-24T03:03:55;7.28;;;5.30;;
48853;SDS011;34673;52.808;17.856;2023-06-24T03:06:23;7.22;;;5.07;;
48853;SDS011;34673;52.808;17.856;2023-06-24T03:08:55;6.68;;;4.68;;
48853;SDS011;34673;52.808;17.856;2023-06-24T03:11:22;8.80;;;4.63;;
48853;SDS011;34673;52.808;17.856;2023-06-24T03:13:50;8.18;;;4.88;;
48853;SDS011;34673;52.808;17.856;2023-06-24T03:16:44;10.77;;;5.15;;
48853;SDS011;34673;52.808;17.856;2023-06-24T03:19:14;8.45;;;4.57;;
48853;SDS011;34673;52.808;17.856;2023-06-24T03:21:41;9.07;;;4.85;;
48853;SDS011;34673;52.808;17.856;2023-06-24T03:24:11;9.52;;;5.18;;
48853;SDS011;34673;52.808;17.856;2023-06-24T03:26:40;7.40;;;4.65;;
48853;SDS011;34673;52.808;17.856;2023-06-24T03:31:50;8.18;;;5.13;;
48853;SDS011;34673;52.808;17.856;2023-06-24T03:34:21;9.27;;;4.65;;
48853;SDS011;34673;52.808;17.856;2023-06-24T03:36:48;8.15;;;5.20;;
48853;SDS011;34673;52.808;17.856;2023-06-24T03:39:16;7.53;;;4.95;;
48853;SDS011;34673;52.808;17.856;2023-06-24T03:41:44;8.60;;;4.70;;
48853;SDS011;34673;52.808;17.856;2023-06-24T03:44:13;8.82;;;4.63;;
48853;SDS011;34673;52.808;17.856;2023-06-24T03:46:41;9.85;;;4.95;;
48853;SDS011;34673;52.808;17.856;2023-06-24T03:49:10;6.88;;;4.45;;
48853;SDS011;34673;52.808;17.856;2023-06-24T03:51:37;7.55;;;5.15;;
48853;SDS011;34673;52.808;17.856;2023-06-24T03:54:04;7.15;;;4.80;;
48853;SDS011;34673;52.808;17.856;2023-06-24T03:56:31;8.30;;;4.97;;
48853;SDS011;34673;52.808;17.856;2023-06-24T03:58:59;8.48;;;5.10;;
48853;SDS011;34673;52.808;17.856;2023-06-24T04:01:26;8.85;;;4.68;;
48853;SDS011;34673;52.808;17.856;2023-06-24T04:03:58;9.25;;;4.60;;
48853;SDS011;34673;52.808;17.856;2023-06-24T04:06:26;7.32;;;5.18;;
48853;SDS011;34673;52.808;17.856;2023-06-24T04:08:53;8.60;;;4.70;;
48853;SDS011;34673;52.808;17.856;2023-06-24T04:11:21;7.72;;;4.75;;
48853;SDS011;34673;52.808;17.856;2023-06-24T04:13:49;7.45;;;4.82;;
48853;SDS011;34673;52.808;17.856;2023-06-24T04:16:17;8.55;;;4.95;;
48853;SDS011;34673;52.808;17.856;2023-06-24T04:18:44;5.47;;;4.15;;
48853;SDS011;34673;52.808;17.856;2023-06-24T04:21:11;7.68;;;4.78;;
48853;SDS011;34673;52.808;17.856;2023-06-24T04:23:39;8.00;;;4.93;;
48853;SDS011;34673;52.808;17.856;2023-06-24T04:26:06;8.68;;;4.82;;
48853;SDS011;34673;52.808;17.856;2023-06-24T04:28:33;6.43;;;4.55;;
48853;SDS011;34673;52.808;17.856;2023-06-24T04:31:01;6.25;;;4.55;;
48853;SDS011;34673;52.808;17.856;2023-06-24T04:33:28;7.25;;;4.70;;
48853;SDS011;34673;52.808;17.856;2023-06-24T04:35:55;7.72;;;5.10;;
48853;SDS011;34673;52.808;17.856;2023-06-24T04:38:24;8.73;;;4.70;;
48853;SDS011;34673;52.808;17.856;2023-06-24T04:40:51;7.85;;;4.90;;
48853;SDS011;34673;52.808;17.856;2023-06-24T04:43:19;7.55;;;4.70;;
48853;SDS011;34673;52.808;17.856;2023-06-24T04:45:47;6.60;;;4.65;;
48853;SDS011;34673;52.808;17.856;2023-06-24T04:48:15;5.95;;;4.82;;
48853;SDS011;34673;52.808;17.856;2023-06-24T04:50:42;7.47;;;4.65;;
48853;SDS011;34673;52.808;17.856;2023-06-24T04:53:09;6.60;;;4.45;;
48853;SDS011;34673;52.808;17.856;2023-06-24T04:55:37;10.82;;;4.95;;
48853;SDS011;34673;52.808;17.856;2023-06-24T04:58:04;7.53;;;4.70;;
48853;SDS011;34673;52.808;17.856;2023-06-24T05:00:32;8.23;;;4.70;;
48853;SDS011;34673;52.808;17.856;2023-06-24T05:02:59;7.88;;;4.80;;
48853;SDS011;34673;52.808;17.856;2023-06-24T05:05:27;7.13;;;4.60;;
48853;SDS011;34673;52.808;17.856;2023-06-24T05:07:54;8.60;;;4.90;;
48853;SDS011;34673;52.808;17.856;2023-06-24T05:10:22;9.55;;;5.15;;
48853;SDS011;34673;52.808;17.856;2023-06-24T05:12:49;8.07;;;5.05;;
48853;SDS011;34673;52.808;17.856;2023-06-24T05:15:17;9.15;;;4.82;;
48853;SDS011;34673;52.808;17.856;2023-06-24T05:17:44;9.27;;;5.13;;
48853;SDS011;34673;52.808;17.856;2023-06-24T05:20:12;8.70;;;4.68;;
48853;SDS011;34673;52.808;17.856;2023-06-24T05:22:39;6.35;;;4.43;;
48853;SDS011;34673;52.808;17.856;2023-06-24T05:25:06;8.40;;;4.60;;
48853;SDS011;34673;52.808;17.856;2023-06-24T05:27:34;9.10;;;5.38;;
48853;SDS011;34673;52.808;17.856;2023-06-24T05:30:01;9.40;;;5.10;;
48853;SDS011;34673;52.808;17.856;2023-06-24T05:32:29;6.90;;;4.85;;
48853;SDS011;34673;52.808;17.856;2023-06-24T05:34:56;6.72;;;4.95;;
48853;SDS011;34673;52.808;17.856;2023-06-24T05:37:24;6.82;;;4.95;;
48853;SDS011;34673;52.808;17.856;2023-06-24T05:39:51;8.20;;;4.97;;
48853;SDS011;34673;52.808;17.856;2023-06-24T05:42:19;6.75;;;4.80;;
48853;SDS011;34673;52.808;17.856;2023-06-24T05:44:47;7.70;;;5.43;;
48853;SDS011;34673;52.808;17.856;2023-06-24T05:47:14;10.23;;;4.80;;
48853;SDS011;34673;52.808;17.856;2023-06-24T05:49:41;5.53;;;4.78;;
48853;SDS011;34673;52.808;17.856;2023-06-24T05:52:09;7.53;;;4.65;;
48853;SDS011;34673;52.808;17.856;2023-06-24T05:54:36;8.35;;;5.15;;
48853;SDS011;34673;52.808;17.856;2023-06-24T05:57:04;8.23;;;5.38;;
48853;SDS011;34673;52.808;17.856;2023-06-24T06:02:01;8.25;;;5.32;;
48853;SDS011;34673;52.808;17.856;2023-06-24T06:04:28;7.07;;;5.18;;
48853;SDS011;34673;52.808;17.856;2023-06-24T06:06:56;7.65;;;4.93;;
48853;SDS011;34673;52.808;17.856;2023-06-24T06:09:23;10.20;;;5.22;;
48853;SDS011;34673;52.808;17.856;2023-06-24T06:11:50;8.55;;;5.32;;
48853;SDS011;34673;52.808;17.856;2023-06-24T06:14:18;9.65;;;5.15;;
48853;SDS011;34673;52.808;17.856;2023-06-24T06:16:45;10.15;;;4.97;;
48853;SDS011;34673;52.808;17.856;2023-06-24T06:19:12;7.68;;;4.82;;
48853;SDS011;34673;52.808;17.856;2023-06-24T06:21:40;7.45;;;4.47;;
48853;SDS011;34673;52.808;17.856;2023-06-24T06:24:07;7.38;;;4.57;;
48853;SDS011;34673;52.808;17.856;2023-06-24T06:26:34;6.85;;;4.95;;
48853;SDS011;34673;52.808;17.856;2023-06-24T06:29:07;7.60;;;5.00;;
48853;SDS011;34673;52.808;17.856;2023-06-24T06:31:34;8.50;;;5.13;;
48853;SDS011;34673;52.808;17.856;2023-06-24T06:34:01;8.00;;;4.85;;
48853;SDS011;34673;52.808;17.856;2023-06-24T06:36:29;8.63;;;4.85;;
48853;SDS011;34673;52.808;17.856;2023-06-24T06:38:56;6.95;;;4.75;;
48853;SDS011;34673;52.808;17.856;2023-06-24T06:41:24;9.60;;;5.25;;
48853;SDS011;34673;52.808;17.856;2023-06-24T06:43:52;7.28;;;4.93;;
48853;SDS011;34673;52.808;17.856;2023-06-24T06:46:20;10.65;;;5.00;;
48853;SDS011;34673;52.808;17.856;2023-06-24T06:48:47;7.43;;;4.60;;
48853;SDS011;34673;52.808;17.856;2023-06-24T06:51:15;8.93;;;5.53;;
48853;SDS011;34673;52.808;17.856;2023-06-24T06:56:22;7.60;;;4.28;;
48853;SDS011;34673;52.808;17.856;2023-06-24T06:58:51;7.97;;;4.93;;
48853;SDS011;34673;52.808;17.856;2023-06-24T07:01:20;6.63;;;4.47;;
48853;SDS011;34673;52.808;17.856;2023-06-24T07:03:48;8.82;;;4.50;;
48853;SDS011;34673;52.808;17.856;2023-06-24T07:06:19;7.55;;;4.78;;
48853;SDS011;34673;52.808;17.856;2023-06-24T07:08:47;8.80;;;4.40;;
48853;SDS011;34673;52.808;17.856;2023-06-24T07:11:14;6.63;;;4.55;;
48853;SDS011;34673;52.808;17.856;2023-06-24T07:13:42;9.50;;;4.75;;
48853;SDS011;34673;52.808;17.856;2023-06-24T07:16:09;7.47;;;4.38;;
48853;SDS011;34673;52.808;17.856;2023-06-24T07:18:36;9.35;;;4.55;;
48853;SDS011;34673;52.808;17.856;2023-06-24T07:21:03;8.77;;;5.25;;
48853;SDS011;34673;52.808;17.856;2023-06-24T07:23:31;6.05;;;4.00;;
48853;SDS011;34673;52.808;17.856;2023-06-24T07:25:58;8.55;;;4.10;;
48853;SDS011;34673;52.808;17.856;2023-06-24T07:28:29;5.72;;;3.58;;
48853;SDS011;34673;52.808;17.856;2023-06-24T07:30:56;5.90;;;3.30;;
48853;SDS011;34673;52.808;17.856;2023-06-24T07:33:24;8.18;;;3.63;;
48853;SDS011;34673;52.808;17.856;2023-06-24T07:35:52;6.45;;;3.30;;
48853;SDS011;34673;52.808;17.856;2023-06-24T07:38:19;6.03;;;4.25;;
48853;SDS011;34673;52.808;17.856;2023-06-24T07:40:46;7.57;;;3.65;;
48853;SDS011;34673;52.808;17.856;2023-06-24T07:43:14;5.40;;;3.55;;
48853;SDS011;34673;52.808;17.856;2023-06-24T07:45:41;6.30;;;3.42;;
48853;SDS011;34673;52.808;17.856;2023-06-24T07:48:08;5.60;;;3.30;;
48853;SDS011;34673;52.808;17.856;2023-06-24T07:50:36;8.00;;;3.15;;
48853;SDS011;34673;52.808;17.856;2023-06-24T07:53:05;5.97;;;3.17;;
48853;SDS011;34673;52.808;17.856;2023-06-24T07:55:32;8.35;;;3.53;;
48853;SDS011;34673;52.808;17.856;2023-06-24T07:58:00;7.97;;;3.83;;
48853;SDS011;34673;52.808;17.856;2023-06-24T08:00:29;5.65;;;3.40;;
48853;SDS011;34673;52.808;17.856;2023-06-24T08:02:57;8.73;;;4.13;;
48853;SDS011;34673;52.808;17.856;2023-06-24T08:05:25;6.35;;;3.40;;
48853;SDS011;34673;52.808;17.856;2023-06-24T08:07:53;7.22;;;4.00;;
48853;SDS011;34673;52.808;17.856;2023-06-24T08:10:20;8.98;;;3.75;;
48853;SDS011;34673;52.808;17.856;2023-06-24T08:12:48;7.05;;;3.88;;
48853;SDS011;34673;52.808;17.856;2023-06-24T08:15:15;6.75;;;3.80;;
48853;SDS011;34673;52.808;17.856;2023-06-24T08:17:43;8.52;;;3.60;;
48853;SDS011;34673;52.808;17.856;2023-06-24T08:20:11;6.70;;;3.88;;
48853;SDS011;34673;52.808;17.856;2023-06-24T08:22:38;6.38;;;3.60;;
48853;SDS011;34673;52.808;17.856;2023-06-24T08:25:06;5.60;;;3.67;;
48853;SDS011;34673;52.808;17.856;2023-06-24T08:27:33;5.00;;;3.60;;
48853;SDS011;34673;52.808;17.856;2023-06-24T08:30:01;7.10;;;3.50;;
48853;SDS011;34673;52.808;17.856;2023-06-24T08:32:28;5.50;;;3.45;;
48853;SDS011;34673;52.808;17.856;2023-06-24T08:34:55;4.97;;;3.10;;
48853;SDS011;34673;52.808;17.856;2023-06-24T08:37:23;9.52;;;3.00;;
48853;SDS011;34673;52.808;17.856;2023-06-24T08:39:50;5.18;;;2.95;;
48853;SDS011;34673;52.808;17.856;2023-06-24T08:42:17;8.00;;;3.53;;
48853;SDS011;34673;52.808;17.856;2023-06-24T08:44:45;6.45;;;3.35;;
48853;SDS011;34673;52.808;17.856;2023-06-24T08:47:12;6.93;;;3.38;;
48853;SDS011;34673;52.808;17.856;2023-06-24T08:49:47;4.45;;;3.28;;
48853;SDS011;34673;52.808;17.856;2023-06-24T08:52:16;12.15;;;3.25;;
48853;SDS011;34673;52.808;17.856;2023-06-24T08:54:45;6.82;;;3.58;;
48853;SDS011;34673;52.808;17.856;2023-06-24T08:57:15;5.97;;;3.45;;
48853;SDS011;34673;52.808;17.856;2023-06-24T08:59:43;7.40;;;3.55;;
48853;SDS011;34673;52.808;17.856;2023-06-24T09:02:10;5.55;;;3.58;;
48853;SDS011;34673;52.808;17.856;2023-06-24T09:04:38;4.90;;;3.40;;
48853;SDS011;34673;52.808;17.856;2023-06-24T09:07:05;5.75;;;2.90;;
48853;SDS011;34673;52.808;17.856;2023-06-24T09:09:34;5.45;;;3.10;;
48853;SDS011;34673;52.808;17.856;2023-06-24T09:12:11;6.55;;;3.22;;
48853;SDS011;34673;52.808;17.856;2023-06-24T09:14:42;7.90;;;3.60;;
48853;SDS011;34673;52.808;17.856;2023-06-24T09:17:15;7.68;;;3.80;;
48853;SDS011;34673;52.808;17.856;2023-06-24T09:19:43;5.88;;;3.75;;
48853;SDS011;34673;52.808;17.856;2023-06-24T09:22:10;10.95;;;4.05;;
48853;SDS011;34673;52.808;17.856;2023-06-24T09:24:45;5.35;;;3.53;;
48853;SDS011;34673;52.808;17.856;2023-06-24T09:27:14;6.53;;;3.27;;
48853;SDS011;34673;52.808;17.856;2023-06-24T09:29:42;6.65;;;4.03;;
48853;SDS011;34673;52.808;17.856;2023-06-24T09:32:10;6.38;;;4.15;;
48853;SDS011;34673;52.808;17.856;2023-06-24T09:34:38;8.95;;;4.07;;
48853;SDS011;34673;52.808;17.856;2023-06-24T09:37:05;7.47;;;3.97;;
48853;SDS011;34673;52.808;17.856;2023-06-24T09:39:37;6.07;;;3.90;;
48853;SDS011;34673;52.808;17.856;2023-06-24T09:42:06;9.43;;;4.10;;
48853;SDS011;34673;52.808;17.856;2023-06-24T09:44:34;7.63;;;4.00;;
48853;SDS011;34673;52.808;17.856;2023-06-24T09:47:02;9.00;;;4.20;;
48853;SDS011;34673;52.808;17.856;2023-06-24T09:49:29;7.65;;;4.25;;
48853;SDS011;34673;52.808;17.856;2023-06-24T09:51:57;14.88;;;4.45;;
48853;SDS011;34673;52.808;17.856;2023-06-24T09:54:27;8.18;;;3.67;;
48853;SDS011;34673;52.808;17.856;2023-06-24T09:57:03;6.68;;;3.75;;
48853;SDS011;34673;52.808;17.856;2023-06-24T09:59:33;10.40;;;4.05;;
48853;SDS011;34673;52.808;17.856;2023-06-24T10:02:02;6.63;;;3.63;;
48853;SDS011;34673;52.808;17.856;2023-06-24T10:04:30;5.05;;;4.03;;
48853;SDS011;34673;52.808;17.856;2023-06-24T10:06:59;4.45;;;3.58;;
48853;SDS011;34673;52.808;17.856;2023-06-24T10:09:27;6.85;;;4.50;;
48853;SDS011;34673;52.808;17.856;2023-06-24T10:11:55;4.93;;;3.40;;
48853;SDS011;34673;52.808;17.856;2023-06-24T10:14:23;7.97;;;3.90;;
48853;SDS011;34673;52.808;17.856;2023-06-24T10:16:50;5.72;;;3.25;;
48853;SDS011;34673;52.808;17.856;2023-06-24T10:19:20;9.15;;;3.33;;
48853;SDS011;34673;52.808;17.856;2023-06-24T10:21:53;5.97;;;3.38;;
48853;SDS011;34673;52.808;17.856;2023-06-24T10:24:42;6.13;;;3.22;;
48853;SDS011;34673;52.808;17.856;2023-06-24T10:27:15;7.03;;;3.58;;
48853;SDS011;34673;52.808;17.856;2023-06-24T10:29:47;7.15;;;3.45;;
48853;SDS011;34673;52.808;17.856;2023-06-24T10:32:16;7.30;;;3.25;;
48853;SDS011;34673;52.808;17.856;2023-06-24T10:35:03;6.97;;;3.40;;
48853;SDS011;34673;52.808;17.856;2023-06-24T10:37:31;5.85;;;3.30;;
48853;SDS011;34673;52.808;17.856;2023-06-24T10:39:59;6.53;;;2.97;;
48853;SDS011;34673;52.808;17.856;2023-06-24T10:45:14;7.68;;;3.60;;
48853;SDS011;34673;52.808;17.856;2023-06-24T10:47:44;6.20;;;3.50;;
48853;SDS011;34673;52.808;17.856;2023-06-24T10:50:14;6.57;;;3.25;;
48853;SDS011;34673;52.808;17.856;2023-06-24T10:52:46;9.00;;;3.55;;
48853;SDS011;34673;52.808;17.856;2023-06-24T10:55:22;4.53;;;3.40;;
48853;SDS011;34673;52.808;17.856;2023-06-24T10:57:54;9.13;;;3.22;;
48853;SDS011;34673;52.808;17.856;2023-06-24T11:00:21;6.45;;;3.45;;
48853;SDS011;34673;52.808;17.856;2023-06-24T11:02:49;4.88;;;3.13;;
48853;SDS011;34673;52.808;17.856;2023-06-24T11:05:17;6.40;;;3.90;;
48853;SDS011;34673;52.808;17.856;2023-06-24T11:07:45;7.10;;;3.10;;
48853;SDS011;34673;52.808;17.856;2023-06-24T11:10:15;4.78;;;3.25;;
48853;SDS011;34673;52.808;17.856;2023-06-24T11:12:43;7.63;;;3.40;;
48853;SDS011;34673;52.808;17.856;2023-06-24T11:15:11;5.05;;;3.38;;
48853;SDS011;34673;52.808;17.856;2023-06-24T11:17:40;6.85;;;3.47;;
48853;SDS011;34673;52.808;17.856;2023-06-24T11:20:11;4.85;;;3.28;;
48853;SDS011;34673;52.808;17.856;2023-06-24T11:22:41;7.32;;;3.78;;
48853;SDS011;34673;52.808;17.856;2023-06-24T11:27:43;9.20;;;3.70;;
48853;SDS011;34673;52.808;17.856;2023-06-24T11:30:11;8.73;;;3.58;;
48853;SDS011;34673;52.808;17.856;2023-06-24T11:32:39;7.50;;;3.63;;
48853;SDS011;34673;52.808;17.856;2023-06-24T11:35:08;6.72;;;3.55;;
48853;SDS011;34673;52.808;17.856;2023-06-24T11:37:37;7.95;;;3.35;;
48853;SDS011;34673;52.808;17.856;2023-06-24T11:40:09;6.93;;;3.55;;
48853;SDS011;34673;52.808;17.856;2023-06-24T11:42:38;5.65;;;3.60;;
48853;SDS011;34673;52.808;17.856;2023-06-24T11:45:07;4.78;;;3.13;;
48853;SDS011;34673;52.808;17.856;2023-06-24T11:47:41;5.10;;;3.20;;
48853;SDS011;34673;52.808;17.856;2023-06-24T11:50:09;6.93;;;3.53;;
48853;SDS011;34673;52.808;17.856;2023-06-24T11:52:44;5.93;;;3.70;;
48853;SDS011;34673;52.808;17.856;2023-06-24T11:55:22;4.78;;;3.17;;
48853;SDS011;34673;52.808;17.856;2023-06-24T12:00:22;7.35;;;3.60;;
48853;SDS011;34673;52.808;17.856;2023-06-24T12:02:54;6.05;;;3.70;;
48853;SDS011;34673;52.808;17.856;2023-06-24T12:05:27;5.75;;;3.78;;
48853;SDS011;34673;52.808;17.856;2023-06-24T12:07:57;4.80;;;3.10;;
48853;SDS011;34673;52.808;17.856;2023-06-24T12:10:26;8.52;;;3.70;;
48853;SDS011;34673;52.808;17.856;2023-06-24T12:12:56;8.75;;;3.78;;
48853;SDS011;34673;52.808;17.856;2023-06-24T12:15:24;6.40;;;3.42;;
48853;SDS011;34673;52.808;17.856;2023-06-24T12:17:52;6.25;;;3.20;;
48853;SDS011;34673;52.808;17.856;2023-06-24T12:20:20;6.72;;;3.53;;
48853;SDS011;34673;52.808;17.856;2023-06-24T12:22:48;5.20;;;3.40;;
48853;SDS011;34673;52.808;17.856;2023-06-24T12:25:16;7.22;;;3.45;;
48853;SDS011;34673;52.808;17.856;2023-06-24T12:27:44;7.22;;;3.60;;
48853;SDS011;34673;52.808;17.856;2023-06-24T12:30:12;5.80;;;3.40;;
48853;SDS011;34673;52.808;17.856;2023-06-24T12:32:40;7.57;;;3.55;;
48853;SDS011;34673;52.808;17.856;2023-06-24T12:35:08;6.43;;;3.15;;
48853;SDS011;34673;52.808;17.856;2023-06-24T12:37:38;5.50;;;3.17;;
48853;SDS011;34673;52.808;17.856;2023-06-24T12:40:06;6.28;;;3.50;;
48853;SDS011;34673;52.808;17.856;2023-06-24T12:42:34;5.70;;;3.30;;
48853;SDS011;34673;52.808;17.856;2023-06-24T12:45:01;5.18;;;3.30;;
48853;SDS011;34673;52.808;17.856;2023-06-24T12:47:29;6.53;;;3.63;;
48853;SDS011;34673;52.808;17.856;2023-06-24T12:49:56;5.38;;;3.28;;
48853;SDS011;34673;52.808;17.856;2023-06-24T12:52:23;6.43;;;3.95;;
48853;SDS011;34673;52.808;17.856;2023-06-24T12:54:51;9.77;;;3.58;;
48853;SDS011;34673;52.808;17.856;2023-06-24T12:57:18;6.20;;;3.35;;
48853;SDS011;34673;52.808;17.856;2023-06-24T12:59:45;5.60;;;3.17;;
48853;SDS011;34673;52.808;17.856;2023-06-24T13:02:13;5.63;;;3.55;;
48853;SDS011;34673;52.808;17.856;2023-06-24T13:04:40;5.40;;;3.58;;
48853;SDS011;34673;52.808;17.856;2023-06-24T13:07:07;6.55;;;3.67;;
48853;SDS011;34673;52.808;17.856;2023-06-24T13:09:36;5.20;;;3.72;;
48853;SDS011;34673;52.808;17.856;2023-06-24T13:12:03;6.10;;;3.67;;
48853;SDS011;34673;52.808;17.856;2023-06-24T13:14:31;9.07;;;3.72;;
48853;SDS011;34673;52.808;17.856;2023-06-24T13:16:59;4.75;;;3.55;;
48853;SDS011;34673;52.808;17.856;2023-06-24T13:19:26;5.22;;;3.47;;
48853;SDS011;34673;52.808;17.856;2023-06-24T13:21:53;5.28;;;3.65;;
48853;SDS011;34673;52.808;17.856;2023-06-24T13:24:21;4.95;;;3.40;;
48853;SDS011;34673;52.808;17.856;2023-06-24T13:26:48;5.35;;;3.50;;
48853;SDS011;34673;52.808;17.856;2023-06-24T13:29:15;4.80;;;3.40;;
48853;SDS011;34673;52.808;17.856;2023-06-24T13:31:43;5.63;;;3.38;;
48853;SDS011;34673;52.808;17.856;2023-06-24T13:34:10;7.05;;;3.70;;
48853;SDS011;34673;52.808;17.856;2023-06-24T13:36:38;9.93;;;3.88;;
48853;SDS011;34673;52.808;17.856;2023-06-24T13:39:06;7.13;;;4.07;;
48853;SDS011;34673;52.808;17.856;2023-06-24T13:41:34;9.45;;;4.00;;
48853;SDS011;34673;52.808;17.856;2023-06-24T13:44:02;7.57;;;4.10;;
48853;SDS011;34673;52.808;17.856;2023-06-24T13:46:30;5.60;;;3.63;;
48853;SDS011;34673;52.808;17.856;2023-06-24T13:48:59;9.10;;;3.83;;
48853;SDS011;34673;52.808;17.856;2023-06-24T13:51:30;8.20;;;3.78;;
48853;SDS011;34673;52.808;17.856;2023-06-24T13:53:57;7.15;;;3.83;;
48853;SDS011;34673;52.808;17.856;2023-06-24T13:56:25;6.13;;;3.50;;
48853;SDS011;34673;52.808;17.856;2023-06-24T13:58:53;6.22;;;3.50;;
48853;SDS011;34673;52.808;17.856;2023-06-24T14:01:20;6.55;;;3.45;;
48853;SDS011;34673;52.808;17.856;2023-06-24T14:03:50;4.93;;;3.35;;
48853;SDS011;34673;52.808;17.856;2023-06-24T14:06:20;5.43;;;3.50;;
48853;SDS011;34673;52.808;17.856;2023-06-24T14:08:48;8.40;;;3.72;;
48853;SDS011;34673;52.808;17.856;2023-06-24T14:11:17;6.63;;;4.05;;
48853;SDS011;34673;52.808;17.856;2023-06-24T14:13:45;8.20;;;3.90;;
48853;SDS011;34673;52.808;17.856;2023-06-24T14:16:12;7.63;;;3.63;;
48853;SDS011;34673;52.808;17.856;2023-06-24T14:18:40;7.50;;;3.80;;
48853;SDS011;34673;52.808;17.856;2023-06-24T14:21:08;5.50;;;3.85;;
48853;SDS011;34673;52.808;17.856;2023-06-24T14:23:35;7.55;;;3.88;;
48853;SDS011;34673;52.808;17.856;2023-06-24T14:26:03;8.57;;;4.35;;
48853;SDS011;34673;52.808;17.856;2023-06-24T14:28:30;8.55;;;4.22;;
48853;SDS011;34673;52.808;17.856;2023-06-24T14:30:57;6.43;;;3.90;;
48853;SDS011;34673;52.808;17.856;2023-06-24T14:33:25;5.82;;;3.75;;
48853;SDS011;34673;52.808;17.856;2023-06-24T14:35:52;5.45;;;4.22;;
48853;SDS011;34673;52.808;17.856;2023-06-24T14:38:19;8.50;;;4.18;;
48853;SDS011;34673;52.808;17.856;2023-06-24T14:40:47;5.47;;;3.53;;
48853;SDS011;34673;52.808;17.856;2023-06-24T14:43:14;7.25;;;3.97;;
48853;SDS011;34673;52.808;17.856;2023-06-24T14:45:42;6.78;;;3.80;;
48853;SDS011;34673;52.808;17.856;2023-06-24T14:48:09;6.85;;;3.47;;
48853;SDS011;34673;52.808;17.856;2023-06-24T14:50:36;6.47;;;3.80;;
48853;SDS011;34673;52.808;17.856;2023-06-24T14:53:05;7.15;;;3.78;;
48853;SDS011;34673;52.808;17.856;2023-06-24T14:55:33;6.30;;;3.83;;
48853;SDS011;34673;52.808;17.856;2023-06-24T14:58:00;6.95;;;3.90;;
48853;SDS011;34673;52.808;17.856;2023-06-24T15:00:28;5.28;;;3.85;;
48853;SDS011;34673;52.808;17.856;2023-06-24T15:02:55;5.43;;;3.83;;
48853;SDS011;34673;52.808;17.856;2023-06-24T15:05:23;5.78;;;3.60;;
48853;SDS011;34673;52.808;17.856;2023-06-24T15:07:50;7.07;;;3.72;;
48853;SDS011;34673;52.808;17.856;2023-06-24T15:10:18;4.70;;;3.45;;
48853;SDS011;34673;52.808;17.856;2023-06-24T15:12:45;5.88;;;3.60;;
48853;SDS011;34673;52.808;17.856;2023-06-24T15:15:13;6.70;;;3.70;;
48853;SDS011;34673;52.808;17.856;2023-06-24T15:17:41;5.70;;;3.70;;
48853;SDS011;34673;52.808;17.856;2023-06-24T15:20:12;7.20;;;4.07;;